VIAG/AGR METAR and TAF weather

Enter ICAO airport designator
Station Type Date Time Source
VIAG METAR 2019/11/05 09:30 UTC NOAA

VIAG 050930Z 29008KT 4000 FU SKC 31/11 Q1010 BECMG 5000


Station Type Date Time Source
VIAG Decoded METAR 2019/11/05 09:30 UTC NOAA

Agra, India (VIAG) 27-09N 077-58E 169M
Nov 05, 2019 - 04:30 AM EST / 2019.11.05 0930 UTC
Wind: from the WNW (290 degrees) at 9 MPH (8 KT):0
Visibility: 2 mile(s):0
Sky conditions: clear
Weather: smoke
Temperature: 87 F (31 C)
Dew Point: 51 F (11 C)
Relative Humidity: 29%
Pressure (altimeter): 29.83 in. Hg (1010 hPa)
ob: VIAG 050930Z 29008KT 4000 FU SKC 31/11 Q1010 BECMG 5000
cycle: 9

Station Type Date Time Source
VIAG TAF 2019/12/13 00:30 UTC NOAA

TAF VIAG 122130Z 1300/1312 05008KT 0600 FG SCT025 BKN080
BECMG 1306/1310 1500 BR
TEMPO 1306/1308 TSRABR FEW030CB
BECMG 1310/1312 2000 HZ

Example: see airport list